Terminal Aerodrome Forecast
Issued by NWS Grand Forks, ND

Home | Current Version | Previous Version | Text Only | Print | Product List | Glossary Off
Versions: 1 2 3 4 5 6 7 8 9 10 11 12 13 14

000
FTUS43 KFGF 230500
TAFFAR
TAF
KFAR 230520Z 2306/2406 33006KT P6SM SKC
     FM232200 11007KT P6SM BKN200
     FM240300 12009KT P6SM OVC060=

USA.gov is the U.S. government's official web portal to all federal, state and local government web resources and services.